Blaby, United Kingdom
Current Conditions -  °F | °C
As of 2:50 AM on Thursday 23 Oct 2014 (Local Time) from EGNX Reporting Station
Scattered Clouds Scattered Clouds  
Wind Chill: 11°   Ceiling: Unl
Heat Index: 11°   Visibility: 6mi
Dew Point:   Wind: 12mph
Humidity: 82%   Direction: 220°SW
Pressure: 30.09"   Gusts: NA
Location:  52.58°N, 1.16°W
Report Text: EGNX 230150Z 22010KT 9999 SCT026 11/08 Q1019
Loading
Personal Weather Stations






























Interactive Weather Map
Tropical Storm Tracking
New forecast layout! Learn more

10-Day Weather Forecast

Advertisements
Track Severe Weather on mobile